sensor_id;sensor_type;location;lat;lon;timestamp;P1;durP1;ratioP1;P2;durP2;ratioP2
71042;SDS011;58696;52.134;5.500;2023-05-19T00:00:26;10.30;;;3.03;;
71042;SDS011;58696;52.134;5.500;2023-05-19T00:02:53;4.93;;;2.40;;
71042;SDS011;58696;52.134;5.500;2023-05-19T00:05:22;5.65;;;2.20;;
71042;SDS011;58696;52.134;5.500;2023-05-19T00:07:53;8.50;;;2.42;;
71042;SDS011;58696;52.134;5.500;2023-05-19T00:10:25;5.75;;;2.30;;
71042;SDS011;58696;52.134;5.500;2023-05-19T00:12:57;5.95;;;2.45;;
71042;SDS011;58696;52.134;5.500;2023-05-19T00:15:26;5.13;;;2.40;;
71042;SDS011;58696;52.134;5.500;2023-05-19T00:17:53;6.43;;;2.10;;
71042;SDS011;58696;52.134;5.500;2023-05-19T00:20:22;4.20;;;2.42;;
71042;SDS011;58696;52.134;5.500;2023-05-19T00:22:51;6.70;;;2.50;;
71042;SDS011;58696;52.134;5.500;2023-05-19T00:25:17;7.18;;;2.30;;
71042;SDS011;58696;52.134;5.500;2023-05-19T00:27:44;10.38;;;2.63;;
71042;SDS011;58696;52.134;5.500;2023-05-19T00:30:13;6.35;;;2.65;;
71042;SDS011;58696;52.134;5.500;2023-05-19T00:32:39;5.65;;;2.30;;
71042;SDS011;58696;52.134;5.500;2023-05-19T00:35:06;5.10;;;2.50;;
71042;SDS011;58696;52.134;5.500;2023-05-19T00:37:33;6.25;;;2.25;;
71042;SDS011;58696;52.134;5.500;2023-05-19T00:40:02;6.45;;;2.30;;
71042;SDS011;58696;52.134;5.500;2023-05-19T00:42:34;6.32;;;2.40;;
71042;SDS011;58696;52.134;5.500;2023-05-19T00:45:06;5.07;;;2.50;;
71042;SDS011;58696;52.134;5.500;2023-05-19T00:47:33;4.53;;;2.58;;
71042;SDS011;58696;52.134;5.500;2023-05-19T00:50:02;6.80;;;2.95;;
71042;SDS011;58696;52.134;5.500;2023-05-19T00:52:29;5.38;;;1.92;;
71042;SDS011;58696;52.134;5.500;2023-05-19T00:54:58;7.05;;;2.67;;
71042;SDS011;58696;52.134;5.500;2023-05-19T00:57:27;7.75;;;2.72;;
71042;SDS011;58696;52.134;5.500;2023-05-19T00:59:56;8.45;;;2.22;;
71042;SDS011;58696;52.134;5.500;2023-05-19T01:02:31;7.47;;;3.13;;
71042;SDS011;58696;52.134;5.500;2023-05-19T01:05:00;5.82;;;2.20;;
71042;SDS011;58696;52.134;5.500;2023-05-19T01:07:28;5.80;;;2.72;;
71042;SDS011;58696;52.134;5.500;2023-05-19T01:09:55;5.53;;;2.65;;
71042;SDS011;58696;52.134;5.500;2023-05-19T01:12:21;6.15;;;2.20;;
71042;SDS011;58696;52.134;5.500;2023-05-19T01:14:51;3.47;;;2.03;;
71042;SDS011;58696;52.134;5.500;2023-05-19T01:33:00;8.35;;;2.63;;
71042;SDS011;58696;52.134;5.500;2023-05-19T01:35:29;8.05;;;2.88;;
71042;SDS011;58696;52.134;5.500;2023-05-19T01:37:59;6.78;;;2.47;;
71042;SDS011;58696;52.134;5.500;2023-05-19T01:40:27;9.20;;;2.65;;
71042;SDS011;58696;52.134;5.500;2023-05-19T01:42:56;3.78;;;2.60;;
71042;SDS011;58696;52.134;5.500;2023-05-19T01:45:25;9.23;;;2.80;;
71042;SDS011;58696;52.134;5.500;2023-05-19T01:47:54;7.07;;;2.35;;
71042;SDS011;58696;52.134;5.500;2023-05-19T01:50:25;13.82;;;2.92;;
71042;SDS011;58696;52.134;5.500;2023-05-19T01:52:59;5.38;;;2.80;;
71042;SDS011;58696;52.134;5.500;2023-05-19T01:55:29;3.15;;;1.92;;
71042;SDS011;58696;52.134;5.500;2023-05-19T02:11:54;11.98;;;2.83;;
71042;SDS011;58696;52.134;5.500;2023-05-19T02:14:37;9.75;;;2.72;;
71042;SDS011;58696;52.134;5.500;2023-05-19T02:17:07;6.45;;;2.85;;
71042;SDS011;58696;52.134;5.500;2023-05-19T02:19:36;7.40;;;2.53;;
71042;SDS011;58696;52.134;5.500;2023-05-19T02:22:04;5.75;;;2.80;;
71042;SDS011;58696;52.134;5.500;2023-05-19T02:24:33;8.63;;;2.92;;
71042;SDS011;58696;52.134;5.500;2023-05-19T02:27:00;8.27;;;2.60;;
71042;SDS011;58696;52.134;5.500;2023-05-19T02:29:26;8.98;;;2.85;;
71042;SDS011;58696;52.134;5.500;2023-05-19T02:31:55;11.57;;;2.92;;
71042;SDS011;58696;52.134;5.500;2023-05-19T02:34:24;9.95;;;3.08;;
71042;SDS011;58696;52.134;5.500;2023-05-19T02:36:55;8.75;;;2.90;;
71042;SDS011;58696;52.134;5.500;2023-05-19T02:39:25;9.20;;;3.20;;
71042;SDS011;58696;52.134;5.500;2023-05-19T02:41:51;9.77;;;3.40;;
71042;SDS011;58696;52.134;5.500;2023-05-19T02:44:23;5.63;;;3.15;;
71042;SDS011;58696;52.134;5.500;2023-05-19T02:46:52;7.70;;;2.47;;
71042;SDS011;58696;52.134;5.500;2023-05-19T02:49:19;6.88;;;2.70;;
71042;SDS011;58696;52.134;5.500;2023-05-19T02:51:45;9.82;;;3.17;;
71042;SDS011;58696;52.134;5.500;2023-05-19T02:54:17;4.85;;;2.70;;
71042;SDS011;58696;52.134;5.500;2023-05-19T02:56:45;4.05;;;2.63;;
71042;SDS011;58696;52.134;5.500;2023-05-19T02:59:14;6.75;;;2.83;;
71042;SDS011;58696;52.134;5.500;2023-05-19T03:01:43;5.25;;;3.15;;
71042;SDS011;58696;52.134;5.500;2023-05-19T03:04:12;5.90;;;2.78;;
71042;SDS011;58696;52.134;5.500;2023-05-19T03:06:45;4.40;;;3.03;;
71042;SDS011;58696;52.134;5.500;2023-05-19T03:09:14;9.25;;;3.17;;
71042;SDS011;58696;52.134;5.500;2023-05-19T03:11:43;5.47;;;2.88;;
71042;SDS011;58696;52.134;5.500;2023-05-19T03:14:09;8.40;;;3.33;;
71042;SDS011;58696;52.134;5.500;2023-05-19T03:16:37;9.10;;;3.03;;
71042;SDS011;58696;52.134;5.500;2023-05-19T03:19:06;9.15;;;2.88;;
71042;SDS011;58696;52.134;5.500;2023-05-19T03:21:34;7.32;;;3.10;;
71042;SDS011;58696;52.134;5.500;2023-05-19T03:24:00;4.63;;;2.80;;
71042;SDS011;58696;52.134;5.500;2023-05-19T03:26:27;7.22;;;3.10;;
71042;SDS011;58696;52.134;5.500;2023-05-19T03:29:00;8.30;;;3.15;;
71042;SDS011;58696;52.134;5.500;2023-05-19T03:31:29;6.38;;;2.92;;
71042;SDS011;58696;52.134;5.500;2023-05-19T03:33:55;4.75;;;2.90;;
71042;SDS011;58696;52.134;5.500;2023-05-19T03:36:27;6.57;;;3.00;;
71042;SDS011;58696;52.134;5.500;2023-05-19T03:39:08;14.70;;;4.47;;
71042;SDS011;58696;52.134;5.500;2023-05-19T03:41:37;7.78;;;3.25;;
71042;SDS011;58696;52.134;5.500;2023-05-19T03:44:09;5.45;;;2.78;;
71042;SDS011;58696;52.134;5.500;2023-05-19T03:46:36;5.65;;;2.70;;
71042;SDS011;58696;52.134;5.500;2023-05-19T03:49:02;4.65;;;2.72;;
71042;SDS011;58696;52.134;5.500;2023-05-19T03:51:29;8.48;;;3.42;;
71042;SDS011;58696;52.134;5.500;2023-05-19T03:54:04;7.32;;;2.75;;
71042;SDS011;58696;52.134;5.500;2023-05-19T03:56:37;3.63;;;2.95;;
71042;SDS011;58696;52.134;5.500;2023-05-19T03:59:04;7.53;;;3.25;;
71042;SDS011;58696;52.134;5.500;2023-05-19T04:01:32;6.63;;;3.50;;
71042;SDS011;58696;52.134;5.500;2023-05-19T04:04:01;5.15;;;3.30;;
71042;SDS011;58696;52.134;5.500;2023-05-19T04:06:28;7.32;;;3.65;;
71042;SDS011;58696;52.134;5.500;2023-05-19T04:09:01;5.53;;;3.08;;
71042;SDS011;58696;52.134;5.500;2023-05-19T04:11:32;5.95;;;3.15;;
71042;SDS011;58696;52.134;5.500;2023-05-19T04:14:02;6.68;;;3.13;;
71042;SDS011;58696;52.134;5.500;2023-05-19T04:16:31;5.80;;;3.55;;
71042;SDS011;58696;52.134;5.500;2023-05-19T04:19:03;4.80;;;3.00;;
71042;SDS011;58696;52.134;5.500;2023-05-19T04:21:32;8.70;;;3.40;;
71042;SDS011;58696;52.134;5.500;2023-05-19T04:23:58;3.97;;;3.53;;
71042;SDS011;58696;52.134;5.500;2023-05-19T04:26:25;10.57;;;4.85;;
71042;SDS011;58696;52.134;5.500;2023-05-19T04:28:56;4.90;;;3.40;;
71042;SDS011;58696;52.134;5.500;2023-05-19T04:31:25;7.47;;;3.42;;
71042;SDS011;58696;52.134;5.500;2023-05-19T04:33:52;5.72;;;3.20;;
71042;SDS011;58696;52.134;5.500;2023-05-19T04:36:21;10.82;;;3.60;;
71042;SDS011;58696;52.134;5.500;2023-05-19T04:38:50;9.35;;;4.03;;
71042;SDS011;58696;52.134;5.500;2023-05-19T04:41:22;5.82;;;3.60;;
71042;SDS011;58696;52.134;5.500;2023-05-19T04:43:51;7.75;;;3.63;;
71042;SDS011;58696;52.134;5.500;2023-05-19T04:46:18;9.68;;;3.88;;
71042;SDS011;58696;52.134;5.500;2023-05-19T04:48:51;6.18;;;4.05;;
71042;SDS011;58696;52.134;5.500;2023-05-19T04:51:20;13.30;;;4.40;;
71042;SDS011;58696;52.134;5.500;2023-05-19T04:53:55;7.75;;;3.90;;
71042;SDS011;58696;52.134;5.500;2023-05-19T04:56:22;6.28;;;3.92;;
71042;SDS011;58696;52.134;5.500;2023-05-19T04:58:49;5.93;;;3.90;;
71042;SDS011;58696;52.134;5.500;2023-05-19T05:01:18;9.85;;;4.10;;
71042;SDS011;58696;52.134;5.500;2023-05-19T05:03:47;9.73;;;5.07;;
71042;SDS011;58696;52.134;5.500;2023-05-19T05:06:14;8.15;;;4.38;;
71042;SDS011;58696;52.134;5.500;2023-05-19T05:08:41;8.18;;;4.00;;
71042;SDS011;58696;52.134;5.500;2023-05-19T05:11:08;8.27;;;4.10;;
71042;SDS011;58696;52.134;5.500;2023-05-19T05:13:37;13.07;;;4.53;;
71042;SDS011;58696;52.134;5.500;2023-05-19T05:16:07;10.13;;;4.35;;
71042;SDS011;58696;52.134;5.500;2023-05-19T05:18:35;12.77;;;4.40;;
71042;SDS011;58696;52.134;5.500;2023-05-19T05:21:04;9.95;;;4.22;;
71042;SDS011;58696;52.134;5.500;2023-05-19T05:23:32;10.40;;;3.88;;
71042;SDS011;58696;52.134;5.500;2023-05-19T05:25:59;9.85;;;4.15;;
71042;SDS011;58696;52.134;5.500;2023-05-19T05:28:34;11.50;;;4.65;;
71042;SDS011;58696;52.134;5.500;2023-05-19T05:31:01;7.00;;;4.25;;
71042;SDS011;58696;52.134;5.500;2023-05-19T05:33:30;6.80;;;3.92;;
71042;SDS011;58696;52.134;5.500;2023-05-19T05:36:01;8.00;;;3.88;;
71042;SDS011;58696;52.134;5.500;2023-05-19T05:38:31;7.32;;;4.03;;
71042;SDS011;58696;52.134;5.500;2023-05-19T05:40:57;8.48;;;4.20;;
71042;SDS011;58696;52.134;5.500;2023-05-19T05:43:28;10.73;;;4.13;;
71042;SDS011;58696;52.134;5.500;2023-05-19T05:45:55;6.97;;;4.30;;
71042;SDS011;58696;52.134;5.500;2023-05-19T05:48:22;8.32;;;5.05;;
71042;SDS011;58696;52.134;5.500;2023-05-19T05:50:52;16.85;;;7.93;;
71042;SDS011;58696;52.134;5.500;2023-05-19T05:53:20;9.98;;;4.78;;
71042;SDS011;58696;52.134;5.500;2023-05-19T05:55:52;10.65;;;4.00;;
71042;SDS011;58696;52.134;5.500;2023-05-19T05:58:18;8.00;;;4.00;;
71042;SDS011;58696;52.134;5.500;2023-05-19T06:00:48;6.35;;;3.50;;
71042;SDS011;58696;52.134;5.500;2023-05-19T06:03:16;7.80;;;4.07;;
71042;SDS011;58696;52.134;5.500;2023-05-19T06:05:47;6.28;;;3.47;;
71042;SDS011;58696;52.134;5.500;2023-05-19T06:08:16;7.93;;;3.90;;
71042;SDS011;58696;52.134;5.500;2023-05-19T06:10:45;6.90;;;3.78;;
71042;SDS011;58696;52.134;5.500;2023-05-19T06:13:12;10.70;;;3.90;;
71042;SDS011;58696;52.134;5.500;2023-05-19T06:15:47;13.43;;;3.83;;
71042;SDS011;58696;52.134;5.500;2023-05-19T06:18:13;12.27;;;4.03;;
71042;SDS011;58696;52.134;5.500;2023-05-19T06:20:40;9.77;;;4.05;;
71042;SDS011;58696;52.134;5.500;2023-05-19T06:23:07;12.80;;;4.22;;
71042;SDS011;58696;52.134;5.500;2023-05-19T06:25:36;12.18;;;4.97;;
71042;SDS011;58696;52.134;5.500;2023-05-19T06:28:04;7.53;;;4.00;;
71042;SDS011;58696;52.134;5.500;2023-05-19T06:30:33;9.65;;;4.03;;
71042;SDS011;58696;52.134;5.500;2023-05-19T06:33:01;9.10;;;3.70;;
71042;SDS011;58696;52.134;5.500;2023-05-19T06:35:33;10.13;;;3.80;;
71042;SDS011;58696;52.134;5.500;2023-05-19T06:38:00;6.43;;;3.55;;
71042;SDS011;58696;52.134;5.500;2023-05-19T06:40:28;6.00;;;3.70;;
71042;SDS011;58696;52.134;5.500;2023-05-19T06:42:58;12.00;;;3.88;;
71042;SDS011;58696;52.134;5.500;2023-05-19T06:45:27;9.25;;;3.45;;
71042;SDS011;58696;52.134;5.500;2023-05-19T06:47:56;5.65;;;3.28;;
71042;SDS011;58696;52.134;5.500;2023-05-19T06:50:24;5.90;;;3.47;;
71042;SDS011;58696;52.134;5.500;2023-05-19T06:52:56;8.73;;;3.42;;
71042;SDS011;58696;52.134;5.500;2023-05-19T06:55:23;5.75;;;2.85;;
71042;SDS011;58696;52.134;5.500;2023-05-19T06:57:52;10.45;;;3.40;;
71042;SDS011;58696;52.134;5.500;2023-05-19T07:00:18;7.57;;;3.53;;
71042;SDS011;58696;52.134;5.500;2023-05-19T07:02:49;11.85;;;3.63;;
71042;SDS011;58696;52.134;5.500;2023-05-19T07:05:19;6.97;;;3.03;;
71042;SDS011;58696;52.134;5.500;2023-05-19T07:07:48;10.25;;;3.50;;
71042;SDS011;58696;52.134;5.500;2023-05-19T07:10:14;6.03;;;3.10;;
71042;SDS011;58696;52.134;5.500;2023-05-19T07:15:08;7.78;;;3.33;;
71042;SDS011;58696;52.134;5.500;2023-05-19T07:17:37;6.75;;;2.95;;
71042;SDS011;58696;52.134;5.500;2023-05-19T07:20:09;6.50;;;3.03;;
71042;SDS011;58696;52.134;5.500;2023-05-19T07:22:38;7.57;;;3.40;;
71042;SDS011;58696;52.134;5.500;2023-05-19T07:25:05;5.83;;;2.77;;
71042;SDS011;58696;52.134;5.500;2023-05-19T07:27:34;8.10;;;3.38;;
71042;SDS011;58696;52.134;5.500;2023-05-19T07:30:03;6.35;;;2.88;;
71042;SDS011;58696;52.134;5.500;2023-05-19T07:32:30;5.05;;;2.67;;
71042;SDS011;58696;52.134;5.500;2023-05-19T07:34:57;9.37;;;3.43;;
71042;SDS011;58696;52.134;5.500;2023-05-19T07:37:24;10.73;;;3.73;;
71042;SDS011;58696;52.134;5.500;2023-05-19T07:39:51;5.82;;;2.78;;
71042;SDS011;58696;52.134;5.500;2023-05-19T07:42:18;10.23;;;3.70;;
71042;SDS011;58696;52.134;5.500;2023-05-19T07:44:44;8.35;;;3.15;;
71042;SDS011;58696;52.134;5.500;2023-05-19T07:47:13;11.67;;;3.20;;
71042;SDS011;58696;52.134;5.500;2023-05-19T07:49:42;5.30;;;2.15;;
71042;SDS011;58696;52.134;5.500;2023-05-19T07:52:09;6.82;;;2.47;;
71042;SDS011;58696;52.134;5.500;2023-05-19T07:54:40;6.43;;;2.35;;
71042;SDS011;58696;52.134;5.500;2023-05-19T07:57:07;5.60;;;2.42;;
71042;SDS011;58696;52.134;5.500;2023-05-19T07:59:35;4.15;;;2.00;;
71042;SDS011;58696;52.134;5.500;2023-05-19T08:02:02;8.23;;;1.95;;
71042;SDS011;58696;52.134;5.500;2023-05-19T08:04:29;6.10;;;2.13;;
71042;SDS011;58696;52.134;5.500;2023-05-19T08:06:55;4.40;;;2.40;;
71042;SDS011;58696;52.134;5.500;2023-05-19T08:09:24;6.07;;;2.30;;
71042;SDS011;58696;52.134;5.500;2023-05-19T08:11:56;10.52;;;4.22;;
71042;SDS011;58696;52.134;5.500;2023-05-19T08:14:26;6.63;;;1.98;;
71042;SDS011;58696;52.134;5.500;2023-05-19T08:16:53;5.72;;;1.92;;
71042;SDS011;58696;52.134;5.500;2023-05-19T08:19:19;4.30;;;1.90;;
71042;SDS011;58696;52.134;5.500;2023-05-19T08:21:51;7.22;;;1.77;;
71042;SDS011;58696;52.134;5.500;2023-05-19T08:24:20;5.25;;;1.70;;
71042;SDS011;58696;52.134;5.500;2023-05-19T08:26:49;4.93;;;1.75;;
71042;SDS011;58696;52.134;5.500;2023-05-19T08:29:17;5.60;;;1.83;;
71042;SDS011;58696;52.134;5.500;2023-05-19T08:31:44;9.10;;;2.03;;
71042;SDS011;58696;52.134;5.500;2023-05-19T08:34:11;5.53;;;1.90;;
71042;SDS011;58696;52.134;5.500;2023-05-19T08:36:40;15.55;;;1.98;;
71042;SDS011;58696;52.134;5.500;2023-05-19T08:39:10;10.52;;;1.80;;
71042;SDS011;58696;52.134;5.500;2023-05-19T08:41:38;7.30;;;1.58;;
71042;SDS011;58696;52.134;5.500;2023-05-19T08:44:08;5.18;;;1.98;;
71042;SDS011;58696;52.134;5.500;2023-05-19T08:46:37;6.40;;;2.30;;
71042;SDS011;58696;52.134;5.500;2023-05-19T08:49:10;5.85;;;1.80;;
71042;SDS011;58696;52.134;5.500;2023-05-19T08:54:45;9.13;;;2.28;;
71042;SDS011;58696;52.134;5.500;2023-05-19T08:57:18;7.63;;;2.22;;
71042;SDS011;58696;52.134;5.500;2023-05-19T08:59:50;4.88;;;1.85;;
71042;SDS011;58696;52.134;5.500;2023-05-19T09:02:20;4.53;;;1.77;;
71042;SDS011;58696;52.134;5.500;2023-05-19T09:04:50;6.32;;;1.88;;
71042;SDS011;58696;52.134;5.500;2023-05-19T09:07:20;5.72;;;1.73;;
71042;SDS011;58696;52.134;5.500;2023-05-19T09:09:50;6.82;;;1.80;;
71042;SDS011;58696;52.134;5.500;2023-05-19T09:12:17;6.93;;;1.60;;
71042;SDS011;58696;52.134;5.500;2023-05-19T09:14:46;8.07;;;1.95;;
71042;SDS011;58696;52.134;5.500;2023-05-19T09:17:15;10.40;;;1.65;;
71042;SDS011;58696;52.134;5.500;2023-05-19T09:19:44;9.65;;;2.20;;
71042;SDS011;58696;52.134;5.500;2023-05-19T09:22:19;6.22;;;1.95;;
71042;SDS011;58696;52.134;5.500;2023-05-19T09:24:46;6.15;;;1.67;;
71042;SDS011;58696;52.134;5.500;2023-05-19T09:27:13;11.68;;;2.55;;
71042;SDS011;58696;52.134;5.500;2023-05-19T09:29:49;4.93;;;1.75;;
71042;SDS011;58696;52.134;5.500;2023-05-19T09:32:26;9.35;;;1.98;;
71042;SDS011;58696;52.134;5.500;2023-05-19T09:34:53;5.25;;;1.70;;
71042;SDS011;58696;52.134;5.500;2023-05-19T09:37:23;4.68;;;1.90;;
71042;SDS011;58696;52.134;5.500;2023-05-19T09:39:52;6.15;;;2.00;;
71042;SDS011;58696;52.134;5.500;2023-05-19T09:42:25;6.80;;;1.80;;
71042;SDS011;58696;52.134;5.500;2023-05-19T09:45:00;9.43;;;2.30;;
71042;SDS011;58696;52.134;5.500;2023-05-19T09:50:04;9.38;;;2.28;;
71042;SDS011;58696;52.134;5.500;2023-05-19T09:52:34;5.22;;;1.95;;
71042;SDS011;58696;52.134;5.500;2023-05-19T09:55:05;5.70;;;2.13;;
71042;SDS011;58696;52.134;5.500;2023-05-19T09:57:38;6.07;;;1.80;;
71042;SDS011;58696;52.134;5.500;2023-05-19T10:00:08;6.00;;;2.28;;
71042;SDS011;58696;52.134;5.500;2023-05-19T10:02:44;6.47;;;2.20;;
71042;SDS011;58696;52.134;5.500;2023-05-19T10:05:13;6.93;;;2.20;;
71042;SDS011;58696;52.134;5.500;2023-05-19T10:07:43;7.82;;;2.13;;
71042;SDS011;58696;52.134;5.500;2023-05-19T10:10:11;6.75;;;2.47;;
71042;SDS011;58696;52.134;5.500;2023-05-19T10:12:39;9.10;;;2.17;;
71042;SDS011;58696;52.134;5.500;2023-05-19T10:15:13;5.68;;;1.88;;
71042;SDS011;58696;52.134;5.500;2023-05-19T10:17:41;6.55;;;2.30;;
71042;SDS011;58696;52.134;5.500;2023-05-19T10:20:14;5.38;;;2.00;;
71042;SDS011;58696;52.134;5.500;2023-05-19T10:22:44;6.13;;;2.20;;
71042;SDS011;58696;52.134;5.500;2023-05-19T10:25:11;5.35;;;1.88;;
71042;SDS011;58696;52.134;5.500;2023-05-19T10:28:01;4.55;;;1.85;;
71042;SDS011;58696;52.134;5.500;2023-05-19T10:30:32;3.58;;;2.05;;
71042;SDS011;58696;52.134;5.500;2023-05-19T10:32:59;7.30;;;2.20;;
71042;SDS011;58696;52.134;5.500;2023-05-19T10:44:24;7.18;;;1.85;;
71042;SDS011;58696;52.134;5.500;2023-05-19T10:47:00;7.90;;;2.17;;
71042;SDS011;58696;52.134;5.500;2023-05-19T10:49:29;5.23;;;2.00;;
71042;SDS011;58696;52.134;5.500;2023-05-19T10:52:00;7.30;;;2.47;;
71042;SDS011;58696;52.134;5.500;2023-05-19T10:54:39;3.70;;;1.88;;
71042;SDS011;58696;52.134;5.500;2023-05-19T10:57:17;7.10;;;1.90;;
71042;SDS011;58696;52.134;5.500;2023-05-19T10:59:45;5.93;;;2.40;;
71042;SDS011;58696;52.134;5.500;2023-05-19T11:05:10;6.43;;;2.28;;
71042;SDS011;58696;52.134;5.500;2023-05-19T11:07:42;8.70;;;2.03;;
71042;SDS011;58696;52.134;5.500;2023-05-19T11:10:10;6.95;;;2.03;;
71042;SDS011;58696;52.134;5.500;2023-05-19T11:12:40;4.10;;;2.08;;
71042;SDS011;58696;52.134;5.500;2023-05-19T11:15:12;3.97;;;1.90;;
71042;SDS011;58696;52.134;5.500;2023-05-19T11:17:46;4.63;;;1.90;;
71042;SDS011;58696;52.134;5.500;2023-05-19T11:25:40;4.85;;;1.88;;
71042;SDS011;58696;52.134;5.500;2023-05-19T11:28:11;9.98;;;2.20;;
71042;SDS011;58696;52.134;5.500;2023-05-19T11:30:41;4.13;;;1.75;;
71042;SDS011;58696;52.134;5.500;2023-05-19T11:33:11;5.47;;;2.25;;
71042;SDS011;58696;52.134;5.500;2023-05-19T11:38:05;3.88;;;1.75;;
71042;SDS011;58696;52.134;5.500;2023-05-19T11:40:34;4.70;;;1.90;;
71042;SDS011;58696;52.134;5.500;2023-05-19T11:43:01;5.15;;;1.85;;
71042;SDS011;58696;52.134;5.500;2023-05-19T11:45:30;4.57;;;1.80;;
71042;SDS011;58696;52.134;5.500;2023-05-19T11:47:58;11.35;;;2.45;;
71042;SDS011;58696;52.134;5.500;2023-05-19T11:50:29;7.50;;;2.10;;
71042;SDS011;58696;52.134;5.500;2023-05-19T11:53:00;8.73;;;3.13;;
71042;SDS011;58696;52.134;5.500;2023-05-19T11:55:29;3.72;;;1.65;;
71042;SDS011;58696;52.134;5.500;2023-05-19T12:00:37;6.35;;;2.10;;
71042;SDS011;58696;52.134;5.500;2023-05-19T12:03:08;8.02;;;2.08;;
71042;SDS011;58696;52.134;5.500;2023-05-19T12:05:36;6.97;;;1.70;;
71042;SDS011;58696;52.134;5.500;2023-05-19T12:08:13;6.63;;;1.85;;
71042;SDS011;58696;52.134;5.500;2023-05-19T12:10:39;7.35;;;2.25;;
71042;SDS011;58696;52.134;5.500;2023-05-19T12:13:09;5.55;;;1.42;;
71042;SDS011;58696;52.134;5.500;2023-05-19T12:15:36;2.65;;;1.42;;
71042;SDS011;58696;52.134;5.500;2023-05-19T12:18:05;5.88;;;1.60;;
71042;SDS011;58696;52.134;5.500;2023-05-19T12:20:37;4.75;;;1.73;;
71042;SDS011;58696;52.134;5.500;2023-05-19T12:23:04;4.45;;;1.80;;
71042;SDS011;58696;52.134;5.500;2023-05-19T12:25:33;7.60;;;1.70;;
71042;SDS011;58696;52.134;5.500;2023-05-19T12:28:01;3.63;;;1.77;;
71042;SDS011;58696;52.134;5.500;2023-05-19T12:30:30;3.35;;;1.50;;
71042;SDS011;58696;52.134;5.500;2023-05-19T12:33:00;5.88;;;1.92;;
71042;SDS011;58696;52.134;5.500;2023-05-19T12:35:30;8.77;;;2.13;;
71042;SDS011;58696;52.134;5.500;2023-05-19T12:38:05;8.02;;;2.20;;
71042;SDS011;58696;52.134;5.500;2023-05-19T12:40:32;7.38;;;2.03;;
71042;SDS011;58696;52.134;5.500;2023-05-19T12:43:05;5.38;;;1.70;;
71042;SDS011;58696;52.134;5.500;2023-05-19T12:45:35;4.70;;;1.65;;
71042;SDS011;58696;52.134;5.500;2023-05-19T12:48:05;5.22;;;1.50;;
71042;SDS011;58696;52.134;5.500;2023-05-19T12:50:41;6.95;;;1.73;;
71042;SDS011;58696;52.134;5.500;2023-05-19T12:53:12;4.53;;;2.03;;
71042;SDS011;58696;52.134;5.500;2023-05-19T12:55:42;10.15;;;3.50;;
71042;SDS011;58696;52.134;5.500;2023-05-19T12:58:13;9.23;;;2.42;;
71042;SDS011;58696;52.134;5.500;2023-05-19T13:03:18;5.07;;;1.95;;
71042;SDS011;58696;52.134;5.500;2023-05-19T13:05:48;6.65;;;2.00;;
71042;SDS011;58696;52.134;5.500;2023-05-19T13:08:17;9.15;;;1.95;;
71042;SDS011;58696;52.134;5.500;2023-05-19T13:10:48;9.93;;;1.90;;
71042;SDS011;58696;52.134;5.500;2023-05-19T13:13:23;3.33;;;1.23;;
71042;SDS011;58696;52.134;5.500;2023-05-19T13:15:50;3.40;;;1.52;;
71042;SDS011;58696;52.134;5.500;2023-05-19T13:18:17;6.28;;;2.10;;
71042;SDS011;58696;52.134;5.500;2023-05-19T13:20:45;5.93;;;1.95;;
71042;SDS011;58696;52.134;5.500;2023-05-19T13:23:14;5.85;;;1.88;;
71042;SDS011;58696;52.134;5.500;2023-05-19T13:25:41;6.88;;;2.05;;
71042;SDS011;58696;52.134;5.500;2023-05-19T13:28:10;3.67;;;1.50;;
71042;SDS011;58696;52.134;5.500;2023-05-19T13:30:39;5.47;;;2.08;;
71042;SDS011;58696;52.134;5.500;2023-05-19T13:33:06;5.57;;;2.10;;
71042;SDS011;58696;52.134;5.500;2023-05-19T13:35:33;6.40;;;1.83;;
71042;SDS011;58696;52.134;5.500;2023-05-19T13:38:05;3.20;;;1.60;;
71042;SDS011;58696;52.134;5.500;2023-05-19T13:40:33;3.40;;;1.60;;
71042;SDS011;58696;52.134;5.500;2023-05-19T13:43:00;4.15;;;1.98;;
71042;SDS011;58696;52.134;5.500;2023-05-19T13:45:27;5.32;;;1.52;;
71042;SDS011;58696;52.134;5.500;2023-05-19T13:47:54;4.50;;;1.60;;
71042;SDS011;58696;52.134;5.500;2023-05-19T13:50:21;3.78;;;1.90;;
71042;SDS011;58696;52.134;5.500;2023-05-19T13:52:53;2.20;;;1.50;;
71042;SDS011;58696;52.134;5.500;2023-05-19T13:55:19;4.15;;;1.73;;
71042;SDS011;58696;52.134;5.500;2023-05-19T13:57:46;4.38;;;2.10;;
71042;SDS011;58696;52.134;5.500;2023-05-19T14:00:13;5.28;;;2.10;;
71042;SDS011;58696;52.134;5.500;2023-05-19T14:02:40;5.65;;;1.90;;
71042;SDS011;58696;52.134;5.500;2023-05-19T14:07:34;3.53;;;1.80;;
71042;SDS011;58696;52.134;5.500;2023-05-19T14:10:06;2.90;;;1.70;;
71042;SDS011;58696;52.134;5.500;2023-05-19T14:12:35;4.45;;;1.60;;
71042;SDS011;58696;52.134;5.500;2023-05-19T14:15:29;5.63;;;1.67;;
71042;SDS011;58696;52.134;5.500;2023-05-19T14:17:59;6.47;;;2.00;;
71042;SDS011;58696;52.134;5.500;2023-05-19T14:20:26;8.13;;;2.42;;
71042;SDS011;58696;52.134;5.500;2023-05-19T14:22:57;3.88;;;1.73;;
71042;SDS011;58696;52.134;5.500;2023-05-19T14:25:25;4.45;;;2.00;;
71042;SDS011;58696;52.134;5.500;2023-05-19T14:27:57;5.35;;;1.75;;
71042;SDS011;58696;52.134;5.500;2023-05-19T14:30:23;7.78;;;1.60;;
71042;SDS011;58696;52.134;5.500;2023-05-19T14:32:50;5.85;;;2.38;;
71042;SDS011;58696;52.134;5.500;2023-05-19T14:35:20;4.63;;;2.08;;
71042;SDS011;58696;52.134;5.500;2023-05-19T14:37:49;6.78;;;1.70;;
71042;SDS011;58696;52.134;5.500;2023-05-19T14:40:16;6.35;;;2.20;;
71042;SDS011;58696;52.134;5.500;2023-05-19T14:42:42;4.35;;;1.83;;
71042;SDS011;58696;52.134;5.500;2023-05-19T14:45:09;7.38;;;2.03;;
71042;SDS011;58696;52.134;5.500;2023-05-19T14:47:36;6.43;;;2.33;;
71042;SDS011;58696;52.134;5.500;2023-05-19T14:50:03;6.60;;;2.27;;
71042;SDS011;58696;52.134;5.500;2023-05-19T14:52:30;4.90;;;1.90;;
71042;SDS011;58696;52.134;5.500;2023-05-19T14:54:59;5.82;;;2.00;;
71042;SDS011;58696;52.134;5.500;2023-05-19T14:57:28;12.60;;;2.20;;
71042;SDS011;58696;52.134;5.500;2023-05-19T14:59:59;6.43;;;1.77;;
71042;SDS011;58696;52.134;5.500;2023-05-19T15:02:26;3.42;;;1.50;;
71042;SDS011;58696;52.134;5.500;2023-05-19T15:04:54;2.60;;;1.80;;
71042;SDS011;58696;52.134;5.500;2023-05-19T15:07:26;6.15;;;1.83;;
71042;SDS011;58696;52.134;5.500;2023-05-19T15:09:53;6.38;;;2.47;;
71042;SDS011;58696;52.134;5.500;2023-05-19T15:12:21;12.32;;;2.30;;
71042;SDS011;58696;52.134;5.500;2023-05-19T15:14:52;5.25;;;1.90;;
71042;SDS011;58696;52.134;5.500;2023-05-19T15:17:24;9.55;;;2.28;;
71042;SDS011;58696;52.134;5.500;2023-05-19T15:19:50;4.43;;;1.88;;
71042;SDS011;58696;52.134;5.500;2023-05-19T15:22:21;7.75;;;1.90;;
71042;SDS011;58696;52.134;5.500;2023-05-19T15:24:51;7.63;;;1.93;;
71042;SDS011;58696;52.134;5.500;2023-05-19T15:27:17;6.63;;;2.10;;
71042;SDS011;58696;52.134;5.500;2023-05-19T15:29:44;7.63;;;2.33;;
71042;SDS011;58696;52.134;5.500;2023-05-19T15:32:10;4.63;;;2.20;;
71042;SDS011;58696;52.134;5.500;2023-05-19T15:34:37;4.97;;;1.70;;
71042;SDS011;58696;52.134;5.500;2023-05-19T15:37:06;4.63;;;2.03;;
71042;SDS011;58696;52.134;5.500;2023-05-19T15:39:35;7.35;;;1.80;;
71042;SDS011;58696;52.134;5.500;2023-05-19T15:42:04;2.83;;;1.77;;
71042;SDS011;58696;52.134;5.500;2023-05-19T15:44:31;4.40;;;2.00;;
71042;SDS011;58696;52.134;5.500;2023-05-19T15:47:01;5.13;;;2.13;;
71042;SDS011;58696;52.134;5.500;2023-05-19T15:49:31;5.50;;;2.15;;
71042;SDS011;58696;52.134;5.500;2023-05-19T15:52:00;11.27;;;2.17;;
71042;SDS011;58696;52.134;5.500;2023-05-19T15:54:31;9.27;;;2.20;;
71042;SDS011;58696;52.134;5.500;2023-05-19T15:56:58;8.82;;;1.98;;
71042;SDS011;58696;52.134;5.500;2023-05-19T15:59:24;6.38;;;2.03;;
71042;SDS011;58696;52.134;5.500;2023-05-19T16:01:51;8.45;;;2.20;;